createdAt,value
2018-05-16T00:00:31.639Z,67.83
2018-05-16T00:01:31.571Z,67.73
2018-05-16T00:02:31.497Z,66.77
2018-05-16T00:03:31.424Z,66.19
2018-05-16T00:04:31.361Z,67.73
2018-05-16T00:05:31.288Z,66.96
2018-05-16T00:06:31.220Z,68.21
2018-05-16T00:07:31.151Z,67.25
2018-05-16T00:08:31.081Z,67.16
2018-05-16T00:09:31.007Z,66.58
2018-05-16T00:10:30.938Z,65.97
2018-05-16T00:11:30.875Z,64.82
2018-05-16T00:12:30.797Z,64.72
2018-05-16T00:13:30.719Z,66.35
2018-05-16T00:14:30.653Z,68.37
2018-05-16T00:15:30.584Z,69.81
2018-05-16T00:16:30.512Z,70.96
2018-05-16T00:17:30.446Z,71.11
2018-05-16T00:18:30.389Z,71.21
2018-05-16T00:19:30.303Z,70.73
2018-05-16T00:20:30.231Z,70.92
2018-05-16T00:21:30.205Z,71.11
2018-05-16T00:22:30.090Z,71.21
2018-05-16T00:23:30.023Z,73.32
2018-05-16T00:24:29.967Z,73.51
2018-05-16T00:25:29.877Z,72.55
2018-05-16T00:26:29.806Z,72.55
2018-05-16T00:27:29.737Z,70.44
2018-05-16T00:28:29.665Z,71.02
2018-05-16T00:29:29.603Z,70.92
2018-05-16T00:30:29.526Z,70.83
2018-05-16T00:31:29.457Z,71.11
2018-05-16T00:32:29.384Z,70.83
2018-05-16T00:33:29.316Z,71.21
2018-05-16T00:34:29.245Z,71.21
2018-05-16T00:35:29.171Z,70.83
2018-05-16T00:36:29.105Z,70.92
2018-05-16T00:37:29.035Z,71.05
2018-05-16T00:38:28.961Z,70.92
2018-05-16T00:39:28.890Z,70.73
2018-05-16T00:40:28.820Z,71.25
2018-05-16T00:41:28.752Z,70.96
2018-05-16T00:42:28.686Z,70.83
2018-05-16T00:43:28.606Z,71.11
2018-05-16T00:44:28.541Z,71.21
2018-05-16T00:45:28.482Z,71.11
2018-05-16T00:46:28.404Z,70.73
2018-05-16T00:47:28.324Z,70.73
2018-05-16T00:48:28.252Z,72.17
2018-05-16T00:49:28.183Z,72.27
2018-05-16T00:50:28.113Z,72.36
2018-05-16T00:51:28.039Z,72.84
2018-05-16T00:52:27.968Z,73.41
2018-05-16T00:53:27.893Z,73.13
2018-05-16T00:54:27.828Z,73.32
2018-05-16T00:55:27.756Z,72.94
2018-05-16T00:56:27.685Z,75.43
2018-05-16T00:57:27.618Z,73.22
2018-05-16T00:58:27.544Z,72.64
2018-05-16T00:59:27.474Z,74.37
2018-05-16T01:00:27.404Z,73.32
2018-05-16T01:01:27.332Z,74.24
2018-05-16T01:02:27.259Z,74.37
2018-05-16T01:03:27.189Z,74.85
2018-05-16T01:04:27.123Z,74.82
2018-05-16T01:05:27.050Z,74.52
2018-05-16T01:06:26.983Z,74.62
2018-05-16T01:07:26.905Z,74.24
2018-05-16T01:08:26.844Z,75.01
2018-05-16T01:09:26.762Z,74.43
2018-05-16T01:10:26.690Z,75.29
2018-05-16T01:11:26.620Z,75.77
2018-05-16T01:12:26.551Z,75.20
2018-05-16T01:13:26.476Z,75.20
2018-05-16T01:14:26.406Z,74.82
2018-05-16T01:15:26.329Z,74.62
2018-05-16T01:16:26.263Z,74.52
2018-05-16T01:17:26.199Z,74.91
2018-05-16T01:18:26.118Z,74.91
2018-05-16T01:19:26.059Z,75.20
2018-05-16T01:20:25.983Z,74.91
2018-05-16T01:21:25.909Z,76.06
2018-05-16T01:22:25.836Z,75.96
2018-05-16T01:23:25.765Z,76.25
2018-05-16T01:24:25.719Z,76.73
2018-05-16T01:25:25.621Z,76.25
2018-05-16T01:26:25.550Z,76.64
2018-05-16T01:27:25.478Z,77.11
2018-05-16T01:28:25.401Z,77.50
2018-05-16T01:29:25.341Z,77.88
2018-05-16T01:30:25.264Z,77.59
2018-05-16T01:31:25.196Z,77.69
2018-05-16T01:32:25.122Z,77.78
2018-05-16T01:33:25.052Z,77.97
2018-05-16T01:34:24.975Z,77.78
2018-05-16T01:35:24.910Z,79.32
2018-05-16T01:36:24.838Z,79.03
2018-05-16T01:37:24.767Z,79.28
2018-05-16T01:38:24.694Z,79.28
2018-05-16T01:39:24.639Z,79.85
2018-05-16T01:40:24.552Z,80.43
2018-05-16T01:41:24.483Z,79.95
2018-05-16T01:42:24.415Z,81.00
2018-05-16T01:43:24.337Z,81.67
2018-05-16T01:44:24.283Z,82.92
2018-05-16T01:45:24.229Z,84.16
2018-05-16T01:46:24.126Z,83.87
2018-05-16T01:47:24.052Z,85.21
2018-05-16T01:48:24.009Z,84.88
2018-05-16T01:49:23.915Z,87.66
2018-05-16T01:50:23.841Z,86.22
2018-05-16T01:51:23.765Z,89.00
2018-05-16T01:52:23.700Z,90.24
2018-05-16T01:53:23.616Z,88.90
2018-05-16T01:54:23.559Z,91.49
2018-05-16T01:55:23.483Z,90.15
2018-05-16T01:56:23.409Z,89.09
2018-05-16T01:57:23.340Z,88.71
2018-05-16T01:58:23.263Z,90.20
2018-05-16T01:59:23.187Z,89.91
2018-05-16T02:00:23.128Z,91.83
2018-05-16T02:01:23.054Z,91.25
2018-05-16T02:02:22.977Z,90.30
2018-05-16T02:03:22.902Z,93.35
2018-05-16T02:04:22.834Z,92.69
2018-05-16T02:05:22.766Z,94.12
2018-05-16T02:06:22.688Z,92.97
2018-05-16T02:07:22.611Z,92.16
2018-05-16T02:08:22.550Z,92.93
2018-05-16T02:09:22.473Z,94.21
2018-05-16T02:10:22.402Z,93.16
2018-05-16T02:11:22.323Z,92.78
2018-05-16T02:12:22.258Z,93.64
2018-05-16T02:13:22.194Z,94.12
2018-05-16T02:14:22.110Z,94.50
2018-05-16T02:15:22.043Z,94.79
2018-05-16T02:16:21.970Z,94.93
2018-05-16T02:17:21.899Z,95.46
2018-05-16T02:18:21.825Z,95.70
2018-05-16T02:19:21.758Z,94.02
2018-05-16T02:20:21.679Z,94.74
2018-05-16T02:21:21.605Z,94.65
2018-05-16T02:22:21.536Z,95.32
2018-05-16T02:23:21.468Z,97.28
2018-05-16T02:24:21.402Z,97.18
2018-05-16T02:25:21.320Z,98.14
2018-05-16T02:26:21.245Z,99.00
2018-05-16T02:27:21.176Z,98.61
2018-05-16T02:28:21.102Z,97.52
2018-05-16T02:29:21.030Z,97.80
2018-05-16T02:30:20.958Z,97.47
2018-05-16T02:31:20.884Z,98.43
2018-05-16T02:32:20.814Z,98.61
2018-05-16T02:33:20.745Z,99.00
2018-05-16T02:34:20.663Z,99.86
2018-05-16T02:35:20.596Z,99.96
2018-05-16T02:36:20.524Z,98.33
2018-05-16T02:37:20.489Z,96.99
2018-05-16T02:38:20.378Z,97.37
2018-05-16T02:39:20.309Z,96.37
2018-05-16T02:40:20.238Z,97.08
2018-05-16T02:41:20.214Z,96.89
2018-05-16T02:42:20.094Z,96.80
2018-05-16T02:43:20.019Z,97.04
2018-05-16T02:44:19.951Z,97.56
2018-05-16T02:45:19.873Z,98.61
2018-05-16T02:46:19.805Z,98.81
2018-05-16T02:47:19.733Z,98.14
2018-05-16T02:48:19.656Z,98.09
2018-05-16T02:49:19.592Z,97.18
2018-05-16T02:50:19.513Z,96.99
2018-05-16T02:51:19.438Z,96.08
2018-05-16T02:52:19.368Z,95.98
2018-05-16T02:53:19.296Z,96.66
2018-05-16T02:54:19.246Z,96.75
2018-05-16T02:55:19.149Z,96.51
2018-05-16T02:56:19.080Z,97.13
2018-05-16T02:57:19.012Z,97.04
2018-05-16T02:58:18.932Z,96.75
2018-05-16T02:59:18.860Z,97.13
2018-05-16T03:00:18.802Z,97.13
2018-05-16T03:01:18.719Z,97.04
2018-05-16T03:02:18.643Z,98.09
2018-05-16T03:03:18.572Z,97.71
2018-05-16T03:04:18.496Z,97.04
2018-05-16T03:05:18.436Z,97.33
2018-05-16T03:06:18.357Z,96.94
2018-05-16T03:07:18.284Z,98.95
2018-05-16T03:08:18.223Z,99.48
2018-05-16T03:09:18.138Z,98.24
2018-05-16T03:10:18.063Z,99.24
2018-05-16T03:11:17.992Z,98.52
2018-05-16T03:12:17.923Z,96.75
2018-05-16T03:13:17.841Z,96.75
2018-05-16T03:14:17.785Z,97.80
2018-05-16T03:15:17.705Z,98.18
2018-05-16T03:16:17.636Z,98.57
2018-05-16T03:17:17.559Z,98.47
2018-05-16T03:18:17.487Z,97.90
2018-05-16T03:19:17.423Z,98.28
2018-05-16T03:20:17.344Z,98.57
2018-05-16T03:21:17.278Z,97.13
2018-05-16T03:22:17.191Z,97.71
2018-05-16T03:23:17.128Z,97.99
2018-05-16T03:24:17.051Z,98.28
2018-05-16T03:25:16.975Z,99.24
2018-05-16T03:26:16.904Z,98.57
2018-05-16T03:27:16.838Z,97.90
2018-05-16T03:28:16.766Z,97.90
2018-05-16T03:29:16.690Z,97.61
2018-05-16T03:30:16.637Z,98.18
2018-05-16T03:31:16.547Z,98.47
2018-05-16T03:32:16.477Z,99.52
2018-05-16T03:33:16.402Z,99.90
2018-05-16T03:34:16.329Z,99.71
2018-05-16T03:35:16.253Z,99.81
2018-05-16T03:36:16.186Z,99.99
2018-05-16T03:37:16.113Z,99.33
2018-05-16T03:38:16.040Z,99.33
2018-05-16T03:39:15.968Z,99.43
2018-05-16T03:40:15.896Z,99.29
2018-05-16T03:41:15.823Z,97.95
2018-05-16T03:42:15.752Z,98.61
2018-05-16T03:43:15.676Z,98.52
2018-05-16T03:44:15.629Z,98.75
2018-05-16T03:45:15.535Z,99.81
2018-05-16T03:46:15.459Z,99.33
2018-05-16T03:47:15.387Z,99.29
2018-05-16T03:48:15.358Z,98.95
2018-05-16T03:49:15.239Z,98.38
2018-05-16T03:50:15.171Z,99.04
2018-05-16T03:51:15.101Z,99.04
2018-05-16T03:52:15.027Z,99.52
2018-05-16T03:53:14.959Z,99.99
2018-05-16T03:54:14.882Z,99.99
2018-05-16T03:55:14.809Z,99.99
2018-05-16T03:56:14.738Z,99.99
2018-05-16T03:57:14.663Z,99.99
2018-05-16T03:58:14.591Z,99.99
2018-05-16T03:59:14.523Z,99.99
2018-05-16T04:00:14.448Z,99.99
2018-05-16T04:01:14.376Z,99.99
2018-05-16T04:02:14.367Z,99.99
2018-05-16T04:03:14.247Z,99.99
2018-05-16T04:04:14.155Z,99.99
2018-05-16T04:05:14.091Z,99.99
2018-05-16T04:06:14.015Z,99.99
2018-05-16T04:07:13.934Z,99.99
2018-05-16T04:08:13.869Z,99.99
2018-05-16T04:09:13.798Z,99.99
2018-05-16T04:10:13.724Z,99.99
2018-05-16T04:11:13.651Z,99.99
2018-05-16T04:12:13.589Z,99.99
2018-05-16T04:13:13.517Z,99.99
2018-05-16T04:14:13.433Z,99.99
2018-05-16T04:15:13.362Z,99.99
2018-05-16T04:16:13.284Z,99.99
2018-05-16T04:17:13.225Z,99.99
2018-05-16T04:18:13.144Z,99.99
2018-05-16T04:19:13.073Z,99.99
2018-05-16T04:20:13.004Z,99.99
2018-05-16T04:21:12.929Z,99.99
2018-05-16T04:22:12.855Z,99.99
2018-05-16T04:23:12.783Z,99.99
2018-05-16T04:24:12.714Z,99.99
2018-05-16T04:25:12.638Z,99.99
2018-05-16T04:26:12.578Z,99.99
2018-05-16T04:27:12.494Z,99.99
2018-05-16T04:28:12.421Z,99.99
2018-05-16T04:29:12.355Z,99.99
2018-05-16T04:30:12.280Z,99.99
2018-05-16T04:31:12.202Z,99.99
2018-05-16T04:32:12.131Z,99.99
2018-05-16T04:33:12.065Z,99.99
2018-05-16T04:34:11.985Z,99.99
2018-05-16T04:35:11.927Z,99.99
2018-05-16T04:36:11.861Z,99.99
2018-05-16T04:37:11.772Z,99.99
2018-05-16T04:38:11.697Z,99.99
2018-05-16T04:39:11.627Z,99.99
2018-05-16T04:40:11.559Z,99.99
2018-05-16T04:41:11.480Z,99.99
2018-05-16T04:42:11.423Z,99.99
2018-05-16T04:43:11.334Z,99.99
2018-05-16T04:44:11.263Z,99.99
2018-05-16T04:45:11.186Z,99.99
2018-05-16T04:46:11.210Z,99.99
2018-05-16T04:47:11.085Z,99.99
2018-05-16T04:48:10.981Z,99.99
2018-05-16T04:49:10.902Z,99.99
2018-05-16T04:50:10.831Z,99.99
2018-05-16T04:51:10.755Z,99.99
2018-05-16T04:52:10.684Z,99.99
2018-05-16T04:53:10.617Z,99.99
2018-05-16T04:54:10.532Z,99.99
2018-05-16T04:55:10.466Z,99.99
2018-05-16T04:56:10.407Z,99.99
2018-05-16T04:57:10.324Z,99.99
2018-05-16T04:58:10.249Z,99.99
2018-05-16T04:59:10.198Z,99.99
2018-05-16T05:00:10.108Z,99.99
2018-05-16T05:01:10.032Z,99.99
2018-05-16T05:02:09.964Z,99.99
2018-05-16T05:03:09.887Z,99.99
2018-05-16T05:04:09.812Z,99.99
2018-05-16T05:05:09.744Z,99.99
2018-05-16T05:06:09.671Z,99.99
2018-05-16T05:07:09.600Z,99.99
2018-05-16T05:08:09.529Z,99.99
2018-05-16T05:09:09.463Z,99.99
2018-05-16T05:10:09.385Z,99.99
2018-05-16T05:11:09.314Z,99.99
2018-05-16T05:12:09.238Z,99.99
2018-05-16T05:13:09.168Z,99.99
2018-05-16T05:14:09.093Z,99.99
2018-05-16T05:15:09.022Z,99.99
2018-05-16T05:16:08.959Z,99.99
2018-05-16T05:17:08.877Z,99.99
2018-05-16T05:18:08.904Z,99.99
2018-05-16T05:19:08.740Z,99.99
2018-05-16T05:20:08.661Z,99.99
2018-05-16T05:21:08.585Z,99.99
2018-05-16T05:22:08.517Z,99.99
2018-05-16T05:23:08.446Z,99.99
2018-05-16T05:24:08.406Z,99.99
2018-05-16T05:25:08.307Z,99.99
2018-05-16T05:26:08.238Z,99.99
2018-05-16T05:27:08.157Z,99.99
2018-05-16T05:28:08.084Z,99.99
2018-05-16T05:29:08.012Z,99.99
2018-05-16T05:30:07.939Z,99.99
2018-05-16T05:31:07.870Z,99.99
2018-05-16T05:32:07.792Z,99.99
2018-05-16T05:33:07.725Z,99.99
2018-05-16T05:34:07.649Z,99.96
2018-05-16T05:35:07.586Z,99.99
2018-05-16T05:36:07.508Z,99.99
2018-05-16T05:37:07.431Z,99.33
2018-05-16T05:38:07.376Z,99.99
2018-05-16T05:39:07.292Z,99.62
2018-05-16T05:40:07.224Z,98.86
2018-05-16T05:41:07.147Z,98.95
2018-05-16T05:42:07.081Z,99.24
2018-05-16T05:43:07.002Z,98.57
2018-05-16T05:44:06.939Z,98.19
2018-05-16T05:45:06.858Z,99.05
2018-05-16T05:46:06.786Z,98.57
2018-05-16T05:47:06.717Z,98.47
2018-05-16T05:48:06.645Z,97.71
2018-05-16T05:49:06.599Z,98.76
2018-05-16T05:50:06.501Z,98.28
2018-05-16T05:51:06.431Z,98.38
2018-05-16T05:52:06.363Z,97.42
2018-05-16T05:53:06.299Z,96.84
2018-05-16T05:54:06.223Z,97.04
2018-05-16T05:55:06.150Z,98.19
2018-05-16T05:56:06.069Z,98.00
2018-05-16T05:57:05.999Z,97.90
2018-05-16T05:58:05.924Z,97.90
2018-05-16T05:59:05.859Z,96.47
2018-05-16T06:00:05.822Z,96.75
2018-05-16T06:01:05.711Z,96.08
2018-05-16T06:02:05.644Z,96.47
2018-05-16T06:03:05.573Z,96.66
2018-05-16T06:04:05.497Z,96.56
2018-05-16T06:05:05.427Z,95.27
2018-05-16T06:06:05.350Z,94.07
2018-05-16T06:07:05.274Z,94.79
2018-05-16T06:08:05.228Z,95.56
2018-05-16T06:09:05.143Z,94.31
2018-05-16T06:10:05.080Z,94.98
2018-05-16T06:11:04.991Z,94.89
2018-05-16T06:12:04.924Z,94.98
2018-05-16T06:13:04.854Z,94.12
2018-05-16T06:14:04.782Z,92.97
2018-05-16T06:15:04.706Z,92.87
2018-05-16T06:16:04.637Z,93.16
2018-05-16T06:17:04.567Z,92.97
2018-05-16T06:18:04.497Z,92.58
2018-05-16T06:19:04.421Z,92.78
2018-05-16T06:20:04.378Z,92.58
2018-05-16T06:21:04.280Z,93.16
2018-05-16T06:22:04.210Z,92.49
2018-05-16T06:23:04.136Z,92.58
2018-05-16T06:24:04.064Z,91.63
2018-05-16T06:25:04.000Z,91.82
2018-05-16T06:26:03.923Z,92.97
2018-05-16T06:27:03.857Z,92.58
2018-05-16T06:28:03.775Z,91.25
2018-05-16T06:29:03.711Z,90.86
2018-05-16T06:30:03.634Z,90.67
2018-05-16T06:31:03.564Z,91.96
2018-05-16T06:32:03.492Z,91.67
2018-05-16T06:33:03.419Z,90.33
2018-05-16T06:34:03.349Z,89.09
2018-05-16T06:35:03.273Z,89.95
2018-05-16T06:36:03.213Z,89.76
2018-05-16T06:37:03.136Z,90.53
2018-05-16T06:38:03.065Z,90.05
2018-05-16T06:39:02.995Z,89.95
2018-05-16T06:40:02.926Z,90.72
2018-05-16T06:41:02.851Z,90.72
2018-05-16T06:42:02.785Z,89.86
2018-05-16T06:43:02.708Z,88.80
2018-05-16T06:44:02.638Z,88.70
2018-05-16T06:45:02.581Z,88.99
2018-05-16T06:46:02.497Z,89.95
2018-05-16T06:47:02.422Z,88.23
2018-05-16T06:48:02.349Z,86.60
2018-05-16T06:49:02.283Z,87.65
2018-05-16T06:50:02.209Z,88.70
2018-05-16T06:51:02.212Z,88.03
2018-05-16T06:52:02.067Z,86.31
2018-05-16T06:53:01.995Z,84.78
2018-05-16T06:54:01.923Z,85.54
2018-05-16T06:55:01.853Z,85.64
2018-05-16T06:56:01.794Z,86.41
2018-05-16T06:57:01.712Z,87.65
2018-05-16T06:58:01.640Z,87.98
2018-05-16T06:59:01.585Z,87.50
2018-05-16T07:00:01.499Z,86.16
2018-05-16T07:01:01.428Z,86.93
2018-05-16T07:02:01.358Z,86.16
2018-05-16T07:03:01.287Z,85.97
2018-05-16T07:04:01.255Z,85.30
2018-05-16T07:05:01.144Z,85.21
2018-05-16T07:06:01.073Z,84.25
2018-05-16T07:07:01.000Z,82.32
2018-05-16T07:08:00.932Z,84.34
2018-05-16T07:09:00.863Z,84.82
2018-05-16T07:10:00.795Z,84.91
2018-05-16T07:11:00.718Z,83.76
2018-05-16T07:12:00.648Z,84.25
2018-05-16T07:13:00.580Z,84.82
2018-05-16T07:14:00.506Z,85.21
2018-05-16T07:15:00.453Z,84.25
2018-05-16T07:16:00.365Z,84.86
2018-05-16T07:17:00.294Z,84.19
2018-05-16T07:18:00.236Z,84.58
2018-05-16T07:19:00.153Z,83.61
2018-05-16T07:20:00.086Z,82.75
2018-05-16T07:21:00.011Z,81.51
2018-05-16T07:21:59.941Z,81.51
2018-05-16T07:22:59.868Z,82.18
2018-05-16T07:23:59.800Z,82.18
2018-05-16T07:24:59.735Z,81.70
2018-05-16T07:25:59.660Z,81.89
2018-05-16T07:26:59.590Z,81.89
2018-05-16T07:27:59.517Z,81.26
2018-05-16T07:28:59.449Z,81.26
2018-05-16T07:29:59.382Z,80.01
2018-05-16T07:30:59.312Z,79.91
2018-05-16T07:31:59.234Z,79.63
2018-05-16T07:32:59.163Z,80.01
2018-05-16T07:33:59.095Z,80.01
2018-05-16T07:34:59.039Z,79.05
2018-05-16T07:35:58.952Z,79.53
2018-05-16T07:36:58.956Z,79.91
2018-05-16T07:37:58.817Z,80.01
2018-05-16T07:38:58.742Z,79.14
2018-05-16T07:39:58.677Z,80.30
2018-05-16T07:40:58.602Z,79.91
2018-05-16T07:41:58.531Z,77.80
2018-05-16T07:42:58.469Z,77.04
2018-05-16T07:43:58.388Z,76.46
2018-05-16T07:44:58.319Z,77.80
2018-05-16T07:45:58.257Z,77.23
2018-05-16T07:46:58.186Z,77.56
2018-05-16T07:47:58.109Z,76.31
2018-05-16T07:48:58.038Z,76.12
2018-05-16T07:49:57.974Z,75.54
2018-05-16T07:50:57.899Z,76.02
2018-05-16T07:51:57.830Z,75.45
2018-05-16T07:52:57.761Z,74.39
2018-05-16T07:53:57.687Z,73.81
2018-05-16T07:54:57.633Z,74.19
2018-05-16T07:55:57.642Z,73.24
2018-05-16T07:56:57.480Z,73.72
2018-05-16T07:57:57.428Z,74.29
2018-05-16T07:58:57.337Z,75.20
2018-05-16T07:59:57.266Z,74.71
2018-05-16T08:00:57.196Z,73.37
2018-05-16T08:01:57.127Z,73.56
2018-05-16T08:02:57.060Z,72.41
2018-05-16T08:03:56.987Z,72.41
2018-05-16T08:04:56.920Z,72.50
2018-05-16T08:05:56.853Z,72.69
2018-05-16T08:06:56.778Z,71.06
2018-05-16T08:07:56.704Z,70.10
2018-05-16T08:08:56.669Z,71.06
2018-05-16T08:09:56.574Z,70.87
2018-05-16T08:10:56.492Z,69.81
2018-05-16T08:11:56.427Z,71.64
2018-05-16T08:12:56.362Z,72.41
2018-05-16T08:13:56.292Z,72.25
2018-05-16T08:14:56.223Z,72.16
2018-05-16T08:15:56.157Z,72.16
2018-05-16T08:16:56.079Z,72.25
2018-05-16T08:17:56.010Z,72.16
2018-05-16T08:18:55.939Z,72.64
2018-05-16T08:19:55.874Z,71.10
2018-05-16T08:20:55.809Z,71.29
2018-05-16T08:21:55.731Z,72.22
2018-05-16T08:22:55.668Z,73.02
2018-05-16T08:23:55.594Z,73.60
2018-05-16T08:24:55.522Z,71.87
2018-05-16T08:25:55.457Z,73.11
2018-05-16T08:26:55.385Z,72.44
2018-05-16T08:27:55.316Z,71.29
2018-05-16T08:28:55.255Z,70.33
2018-05-16T08:29:55.177Z,69.95
2018-05-16T08:30:55.107Z,70.52
2018-05-16T08:31:55.045Z,68.54
2018-05-16T08:32:54.974Z,69.12
2018-05-16T08:33:54.903Z,69.02
2018-05-16T08:34:54.831Z,69.21
2018-05-16T08:35:54.762Z,69.89
2018-05-16T08:36:54.694Z,68.35
2018-05-16T08:37:54.632Z,67.99
2018-05-16T08:38:54.556Z,68.29
2018-05-16T08:39:54.491Z,67.99
2018-05-16T08:40:54.418Z,68.38
2018-05-16T08:41:54.349Z,68.67
2018-05-16T08:42:54.372Z,66.55
2018-05-16T08:43:54.209Z,66.07
2018-05-16T08:44:54.149Z,68.29
2018-05-16T08:45:54.080Z,67.26
2018-05-16T08:46:54.011Z,66.39
2018-05-16T08:47:53.933Z,65.72
2018-05-16T08:48:53.871Z,64.76
2018-05-16T08:49:53.801Z,64.95
2018-05-16T08:50:53.741Z,64.95
2018-05-16T08:51:53.663Z,64.08
2018-05-16T08:52:53.600Z,64.18
2018-05-16T08:53:53.527Z,62.67
2018-05-16T08:54:53.463Z,63.12
2018-05-16T08:55:53.421Z,62.83
2018-05-16T08:56:53.325Z,63.06
2018-05-16T08:57:53.257Z,62.96
2018-05-16T08:58:53.193Z,61.71
2018-05-16T08:59:53.121Z,62.00
2018-05-16T09:00:53.056Z,61.71
2018-05-16T09:01:52.989Z,62.60
2018-05-16T09:02:52.919Z,61.93
2018-05-16T09:03:52.858Z,59.91
2018-05-16T09:04:52.784Z,59.62
2018-05-16T09:05:52.717Z,58.88
2018-05-16T09:06:52.653Z,57.72
2018-05-16T09:07:52.583Z,57.53
2018-05-16T09:08:52.514Z,57.72
2018-05-16T09:09:52.451Z,56.76
2018-05-16T09:10:52.381Z,55.34
2018-05-16T09:11:52.323Z,54.74
2018-05-16T09:12:52.250Z,54.86
2018-05-16T09:13:52.178Z,54.96
2018-05-16T09:14:52.115Z,54.40
2018-05-16T09:15:52.049Z,54.02
2018-05-16T09:16:51.983Z,54.74
2018-05-16T09:17:51.917Z,53.89
2018-05-16T09:18:51.854Z,53.70
2018-05-16T09:19:51.781Z,54.66
2018-05-16T09:20:51.719Z,55.41
2018-05-16T09:21:51.654Z,56.76
2018-05-16T09:22:51.590Z,56.79
2018-05-16T09:23:51.522Z,53.44
2018-05-16T09:24:51.456Z,52.69
2018-05-16T09:25:51.389Z,51.29
2018-05-16T09:26:51.324Z,50.69
2018-05-16T09:27:51.261Z,51.20
2018-05-16T09:28:51.194Z,52.26
2018-05-16T09:29:51.129Z,49.90
2018-05-16T09:30:51.071Z,47.31
2018-05-16T09:31:51.003Z,46.92
2018-05-16T09:32:50.969Z,46.17
2018-05-16T09:33:50.871Z,44.89
2018-05-16T09:34:50.806Z,46.73
2018-05-16T09:35:50.744Z,47.48
2018-05-16T09:36:50.681Z,48.03
2018-05-16T09:37:50.613Z,48.95
2018-05-16T09:38:50.555Z,48.95
2018-05-16T09:39:50.499Z,50.50
2018-05-16T09:40:50.441Z,49.73
2018-05-16T09:41:50.374Z,50.59
2018-05-16T09:42:50.307Z,50.96
2018-05-16T09:43:50.236Z,52.01
2018-05-16T09:44:50.174Z,52.59
2018-05-16T09:45:50.166Z,51.92
2018-05-16T09:46:50.051Z,50.40
2018-05-16T09:47:49.978Z,49.44
2018-05-16T09:48:49.928Z,50.50
2018-05-16T09:49:49.859Z,50.81
2018-05-16T09:50:49.794Z,49.00
2018-05-16T09:51:49.732Z,47.38
2018-05-16T09:52:49.658Z,46.73
2018-05-16T09:53:49.598Z,46.73
2018-05-16T09:54:49.544Z,46.70
2018-05-16T09:55:49.476Z,47.48
2018-05-16T09:56:49.430Z,47.28
2018-05-16T09:57:49.348Z,47.55
2018-05-16T09:58:49.284Z,48.39
2018-05-16T09:59:49.224Z,49.05
2018-05-16T10:00:49.160Z,50.01
2018-05-16T10:01:49.093Z,50.67
2018-05-16T10:02:49.045Z,50.96
2018-05-16T10:03:48.967Z,51.63
2018-05-16T10:04:48.912Z,51.70
2018-05-16T10:05:48.843Z,51.99
2018-05-16T10:06:48.774Z,51.89
2018-05-16T10:07:48.711Z,51.89
2018-05-16T10:08:48.670Z,52.98
2018-05-16T10:09:48.676Z,51.15
2018-05-16T10:10:48.523Z,50.79
2018-05-16T10:11:48.457Z,50.98
2018-05-16T10:12:48.407Z,50.89
2018-05-16T10:13:48.323Z,50.11
2018-05-16T10:14:48.256Z,49.75
2018-05-16T10:15:48.196Z,48.39
2018-05-16T10:16:48.132Z,48.21
2018-05-16T10:17:48.067Z,49.51
2018-05-16T10:18:48.005Z,50.40
2018-05-16T10:19:47.943Z,49.70
2018-05-16T10:20:47.865Z,50.86
2018-05-16T10:21:47.806Z,51.89
2018-05-16T10:22:47.745Z,51.89
2018-05-16T10:23:47.699Z,52.28
2018-05-16T10:24:47.613Z,52.09
2018-05-16T10:25:47.569Z,52.28
2018-05-16T10:26:47.484Z,52.19
2018-05-16T10:27:47.419Z,52.19
2018-05-16T10:28:47.356Z,52.95
2018-05-16T10:29:47.291Z,52.76
2018-05-16T10:30:47.238Z,51.51
2018-05-16T10:31:47.160Z,51.70
2018-05-16T10:32:47.101Z,51.99
2018-05-16T10:33:47.026Z,53.05
2018-05-16T10:34:46.964Z,53.05
2018-05-16T10:35:46.896Z,52.83
2018-05-16T10:36:46.831Z,53.48
2018-05-16T10:37:46.765Z,53.39
2018-05-16T10:38:46.697Z,53.96
2018-05-16T10:39:46.637Z,55.00
2018-05-16T10:40:46.566Z,56.44
2018-05-16T10:41:46.507Z,56.05
2018-05-16T10:42:46.436Z,56.63
2018-05-16T10:43:46.386Z,57.79
2018-05-16T10:44:46.296Z,58.17
2018-05-16T10:45:46.238Z,59.23
2018-05-16T10:46:46.170Z,61.32
2018-05-16T10:47:46.098Z,63.06
2018-05-16T10:48:46.039Z,65.17
2018-05-16T10:49:45.969Z,66.58
2018-05-16T10:50:45.901Z,68.29
2018-05-16T10:51:45.830Z,72.29
2018-05-16T10:52:45.771Z,72.19
2018-05-16T10:53:45.697Z,71.33
2018-05-16T10:54:45.646Z,72.38
2018-05-16T10:55:45.563Z,74.60
2018-05-16T10:56:45.513Z,72.19
2018-05-16T10:57:45.426Z,72.29
2018-05-16T10:58:45.366Z,71.42
2018-05-16T10:59:45.622Z,73.06
2018-05-16T11:00:45.226Z,71.91
2018-05-16T11:01:45.162Z,73.15
2018-05-16T11:02:45.087Z,73.06
2018-05-16T11:03:45.026Z,70.84
2018-05-16T11:04:44.968Z,73.73
2018-05-16T11:05:44.884Z,74.65
2018-05-16T11:06:44.812Z,74.65
2018-05-16T11:07:44.745Z,72.64
2018-05-16T11:08:44.675Z,73.41
2018-05-16T11:09:44.625Z,73.50
2018-05-16T11:10:44.533Z,71.67
2018-05-16T11:11:44.468Z,76.19
2018-05-16T11:12:44.402Z,75.13
2018-05-16T11:13:44.338Z,74.75
2018-05-16T11:14:44.256Z,75.04
2018-05-16T11:15:44.200Z,73.21
2018-05-16T11:16:44.128Z,72.34
2018-05-16T11:17:44.057Z,74.08
2018-05-16T11:18:43.991Z,72.06
2018-05-16T11:19:43.986Z,72.73
2018-05-16T11:20:43.884Z,71.67
2018-05-16T11:21:43.779Z,73.21
2018-05-16T11:22:43.712Z,73.60
2018-05-16T11:23:43.639Z,73.21
2018-05-16T11:24:43.572Z,74.37
2018-05-16T11:25:43.499Z,72.06
2018-05-16T11:26:43.437Z,71.77
2018-05-16T11:27:43.362Z,70.65
2018-05-16T11:28:43.295Z,69.98
2018-05-16T11:29:43.231Z,69.89
2018-05-16T11:30:43.161Z,68.73
2018-05-16T11:31:43.086Z,69.44
2018-05-16T11:32:43.027Z,68.57
2018-05-16T11:33:42.944Z,68.19
2018-05-16T11:34:42.887Z,68.90
2018-05-16T11:35:42.811Z,67.74
2018-05-16T11:36:42.830Z,66.78
2018-05-16T11:37:42.672Z,68.51
2018-05-16T11:38:42.603Z,66.81
2018-05-16T11:39:42.535Z,64.98
2018-05-16T11:40:42.473Z,66.04
2018-05-16T11:41:42.397Z,64.92
2018-05-16T11:42:42.329Z,64.89
2018-05-16T11:43:42.260Z,65.08
2018-05-16T11:44:42.191Z,62.60
2018-05-16T11:45:42.121Z,61.45
2018-05-16T11:46:42.054Z,60.97
2018-05-16T11:47:41.988Z,61.77
2018-05-16T11:48:41.965Z,61.87
2018-05-16T11:49:41.849Z,61.10
2018-05-16T11:50:41.787Z,62.83
2018-05-16T11:51:41.714Z,59.84
2018-05-16T11:52:41.644Z,60.52
2018-05-16T11:53:41.582Z,61.29
2018-05-16T11:54:41.512Z,61.77
2018-05-16T11:55:41.463Z,60.52
2018-05-16T11:56:41.380Z,60.42
2018-05-16T11:57:41.321Z,60.00
2018-05-16T11:58:41.240Z,60.00
2018-05-16T11:59:41.175Z,61.10
2018-05-16T12:00:41.106Z,60.87
2018-05-16T12:01:41.037Z,61.07
2018-05-16T12:02:40.971Z,59.62
2018-05-16T12:03:40.901Z,59.91
2018-05-16T12:04:40.828Z,61.16
2018-05-16T12:05:40.776Z,60.87
2018-05-16T12:06:40.700Z,59.23
2018-05-16T12:07:40.631Z,59.14
2018-05-16T12:08:40.632Z,58.37
2018-05-16T12:09:40.500Z,59.33
2018-05-16T12:10:40.434Z,59.14
2018-05-16T12:11:40.364Z,60.00
2018-05-16T12:12:40.297Z,60.49
2018-05-16T12:13:40.229Z,61.25
2018-05-16T12:14:40.257Z,59.81
2018-05-16T12:15:40.090Z,61.45
2018-05-16T12:16:40.025Z,60.49
2018-05-16T12:17:39.950Z,60.39
2018-05-16T12:18:39.886Z,60.49
2018-05-16T12:19:39.821Z,59.04
2018-05-16T12:20:39.754Z,59.14
2018-05-16T12:21:39.716Z,60.00
2018-05-16T12:22:39.614Z,59.23
2018-05-16T12:23:39.550Z,57.98
2018-05-16T12:24:39.483Z,58.17
2018-05-16T12:25:39.414Z,58.47
2018-05-16T12:26:39.345Z,59.81
2018-05-16T12:27:39.278Z,58.65
2018-05-16T12:28:39.208Z,59.04
2018-05-16T12:29:39.137Z,58.88
2018-05-16T12:30:39.072Z,59.07
2018-05-16T12:31:39.008Z,59.14
2018-05-16T12:32:38.929Z,58.37
2018-05-16T12:33:38.868Z,58.85
2018-05-16T12:34:38.804Z,59.14
2018-05-16T12:35:38.727Z,58.65
2018-05-16T12:36:38.750Z,58.37
2018-05-16T12:37:38.593Z,58.11
2018-05-16T12:38:38.533Z,58.85
2018-05-16T12:39:38.460Z,58.75
2018-05-16T12:40:38.402Z,59.43
2018-05-16T12:41:38.327Z,58.65
2018-05-16T12:42:38.254Z,59.72
2018-05-16T12:43:38.187Z,59.81
2018-05-16T12:44:38.123Z,58.27
2018-05-16T12:45:38.055Z,57.79
2018-05-16T12:46:38.078Z,57.57
2018-05-16T12:47:37.919Z,58.27
2018-05-16T12:48:37.851Z,60.65
2018-05-16T12:49:37.783Z,59.78
2018-05-16T12:50:37.717Z,62.19
2018-05-16T12:51:37.650Z,61.22